sensor_id;sensor_type;location;lat;lon;timestamp;pressure;altitude;pressure_sealevel;temperature;humidity
4617;BME280;2321;42.704;23.384;2024-01-07T00:01:30;93958.06;;;5.21;100.00
4617;BME280;2321;42.704;23.384;2024-01-07T00:03:57;93953.19;;;5.25;100.00
4617;BME280;2321;42.704;23.384;2024-01-07T00:06:23;93954.66;;;5.27;100.00
4617;BME280;2321;42.704;23.384;2024-01-07T00:08:52;93960.09;;;5.26;100.00
4617;BME280;2321;42.704;23.384;2024-01-07T00:11:18;93960.31;;;5.24;100.00
4617;BME280;2321;42.704;23.384;2024-01-07T00:13:45;93950.94;;;5.21;100.00
4617;BME280;2321;42.704;23.384;2024-01-07T00:16:12;93949.50;;;5.19;100.00
4617;BME280;2321;42.704;23.384;2024-01-07T00:18:38;93953.34;;;5.16;100.00
4617;BME280;2321;42.704;23.384;2024-01-07T00:21:05;93942.41;;;5.19;100.00
4617;BME280;2321;42.704;23.384;2024-01-07T00:23:32;93941.78;;;5.17;100.00
4617;BME280;2321;42.704;23.384;2024-01-07T00:26:01;93935.47;;;5.11;100.00
4617;BME280;2321;42.704;23.384;2024-01-07T00:28:28;93929.94;;;5.06;100.00
4617;BME280;2321;42.704;23.384;2024-01-07T00:30:55;93913.56;;;5.11;100.00
4617;BME280;2321;42.704;23.384;2024-01-07T00:33:22;93919.03;;;5.16;100.00
4617;BME280;2321;42.704;23.384;2024-01-07T00:35:51;93910.69;;;5.12;100.00
4617;BME280;2321;42.704;23.384;2024-01-07T00:38:18;93911.06;;;5.03;100.00
4617;BME280;2321;42.704;23.384;2024-01-07T00:40:45;93906.56;;;4.96;100.00
4617;BME280;2321;42.704;23.384;2024-01-07T00:43:13;93898.00;;;4.87;100.00
4617;BME280;2321;42.704;23.384;2024-01-07T00:45:40;93901.59;;;4.79;100.00
4617;BME280;2321;42.704;23.384;2024-01-07T00:48:07;93889.63;;;4.77;100.00
4617;BME280;2321;42.704;23.384;2024-01-07T00:50:33;93877.25;;;4.77;100.00
4617;BME280;2321;42.704;23.384;2024-01-07T00:53:00;93872.78;;;4.78;100.00
4617;BME280;2321;42.704;23.384;2024-01-07T00:55:27;93854.56;;;4.83;100.00
4617;BME280;2321;42.704;23.384;2024-01-07T00:57:54;93851.31;;;4.81;100.00
4617;BME280;2321;42.704;23.384;2024-01-07T01:00:22;93846.66;;;4.83;100.00
4617;BME280;2321;42.704;23.384;2024-01-07T01:02:49;93854.59;;;4.90;100.00
4617;BME280;2321;42.704;23.384;2024-01-07T01:05:16;93851.97;;;4.90;100.00
4617;BME280;2321;42.704;23.384;2024-01-07T01:07:42;93854.59;;;4.90;100.00
4617;BME280;2321;42.704;23.384;2024-01-07T01:10:09;93857.03;;;4.92;100.00
4617;BME280;2321;42.704;23.384;2024-01-07T01:12:36;93836.97;;;4.97;100.00
4617;BME280;2321;42.704;23.384;2024-01-07T01:15:03;93833.94;;;5.00;100.00
4617;BME280;2321;42.704;23.384;2024-01-07T01:17:31;93825.84;;;5.02;100.00
4617;BME280;2321;42.704;23.384;2024-01-07T01:19:58;93817.72;;;5.04;100.00
4617;BME280;2321;42.704;23.384;2024-01-07T01:22:25;93812.69;;;5.09;100.00
4617;BME280;2321;42.704;23.384;2024-01-07T01:24:51;93813.28;;;5.11;100.00
4617;BME280;2321;42.704;23.384;2024-01-07T01:27:18;93804.38;;;5.12;100.00
4617;BME280;2321;42.704;23.384;2024-01-07T01:29:45;93794.00;;;5.10;100.00
4617;BME280;2321;42.704;23.384;2024-01-07T01:32:12;93786.31;;;5.09;100.00
4617;BME280;2321;42.704;23.384;2024-01-07T01:34:41;93786.50;;;5.14;100.00
4617;BME280;2321;42.704;23.384;2024-01-07T01:37:07;93789.75;;;5.16;100.00
4617;BME280;2321;42.704;23.384;2024-01-07T01:39:34;93776.78;;;5.21;100.00
4617;BME280;2321;42.704;23.384;2024-01-07T01:42:01;93773.53;;;5.19;100.00
4617;BME280;2321;42.704;23.384;2024-01-07T01:44:28;93758.31;;;5.21;100.00
4617;BME280;2321;42.704;23.384;2024-01-07T01:46:56;93755.06;;;5.19;100.00
4617;BME280;2321;42.704;23.384;2024-01-07T01:49:25;93748.16;;;5.18;100.00
4617;BME280;2321;42.704;23.384;2024-01-07T01:51:54;93736.41;;;5.21;100.00
4617;BME280;2321;42.704;23.384;2024-01-07T01:54:21;93723.63;;;5.18;100.00
4617;BME280;2321;42.704;23.384;2024-01-07T01:56:48;93719.13;;;5.18;100.00
4617;BME280;2321;42.704;23.384;2024-01-07T01:59:15;93718.13;;;5.19;100.00
4617;BME280;2321;42.704;23.384;2024-01-07T02:01:42;93722.59;;;5.19;100.00
4617;BME280;2321;42.704;23.384;2024-01-07T02:04:09;93728.69;;;5.19;100.00
4617;BME280;2321;42.704;23.384;2024-01-07T02:06:35;93728.28;;;5.22;100.00
4617;BME280;2321;42.704;23.384;2024-01-07T02:09:04;93724.63;;;5.23;100.00
4617;BME280;2321;42.704;23.384;2024-01-07T02:11:30;93736.59;;;5.19;100.00
4617;BME280;2321;42.704;23.384;2024-01-07T02:13:57;93736.19;;;5.22;100.00
4617;BME280;2321;42.704;23.384;2024-01-07T02:16:24;93740.47;;;5.23;100.00
4617;BME280;2321;42.704;23.384;2024-01-07T02:18:51;93719.78;;;5.27;100.00
4617;BME280;2321;42.704;23.384;2024-01-07T02:21:17;93701.09;;;5.29;100.00
4617;BME280;2321;42.704;23.384;2024-01-07T02:23:44;93689.94;;;5.27;100.00
4617;BME280;2321;42.704;23.384;2024-01-07T02:26:12;93685.25;;;5.29;100.00
4617;BME280;2321;42.704;23.384;2024-01-07T02:28:39;93647.50;;;5.15;100.00
4617;BME280;2321;42.704;23.384;2024-01-07T02:31:06;93651.16;;;5.27;100.00
4617;BME280;2321;42.704;23.384;2024-01-07T02:33:32;93645.47;;;5.23;100.00
4617;BME280;2321;42.704;23.384;2024-01-07T02:35:59;93637.56;;;5.23;100.00
4617;BME280;2321;42.704;23.384;2024-01-07T02:38:26;93621.50;;;5.25;100.00
4617;BME280;2321;42.704;23.384;2024-01-07T02:40:53;93627.59;;;5.26;100.00
4617;BME280;2321;42.704;23.384;2024-01-07T02:43:21;93630.66;;;5.29;100.00
4617;BME280;2321;42.704;23.384;2024-01-07T02:45:47;93636.13;;;5.34;100.00
4617;BME280;2321;42.704;23.384;2024-01-07T02:48:14;93641.41;;;5.34;100.00
4617;BME280;2321;42.704;23.384;2024-01-07T02:50:41;93653.78;;;5.34;100.00
4617;BME280;2321;42.704;23.384;2024-01-07T02:53:08;93648.50;;;5.34;100.00
4617;BME280;2321;42.704;23.384;2024-01-07T02:55:36;93647.09;;;5.38;100.00
4617;BME280;2321;42.704;23.384;2024-01-07T02:58:03;93640.41;;;5.42;100.00
4617;BME280;2321;42.704;23.384;2024-01-07T03:00:31;93646.88;;;5.47;100.00
4617;BME280;2321;42.704;23.384;2024-01-07T03:02:57;93651.16;;;5.41;100.00
4617;BME280;2321;42.704;23.384;2024-01-07T03:05:24;93671.66;;;5.45;100.00
4617;BME280;2321;42.704;23.384;2024-01-07T03:07:52;93673.91;;;5.49;100.00
4617;BME280;2321;42.704;23.384;2024-01-07T03:10:19;93664.75;;;5.51;100.00
4617;BME280;2321;42.704;23.384;2024-01-07T03:12:46;93660.91;;;5.47;100.00
4617;BME280;2321;42.704;23.384;2024-01-07T03:15:13;93658.06;;;5.42;100.00
4617;BME280;2321;42.704;23.384;2024-01-07T03:17:41;93668.41;;;5.50;100.00
4617;BME280;2321;42.704;23.384;2024-01-07T03:20:08;93654.19;;;5.58;100.00
4617;BME280;2321;42.704;23.384;2024-01-07T03:22:35;93672.88;;;5.63;100.00
4617;BME280;2321;42.704;23.384;2024-01-07T03:25:02;93674.91;;;5.68;100.00
4617;BME280;2321;42.704;23.384;2024-01-07T03:27:29;93674.91;;;5.68;100.00
4617;BME280;2321;42.704;23.384;2024-01-07T03:29:56;93671.66;;;5.73;100.00
4617;BME280;2321;42.704;23.384;2024-01-07T03:32:23;93671.44;;;5.74;100.00
4617;BME280;2321;42.704;23.384;2024-01-07T03:34:51;93670.84;;;5.79;100.00
4617;BME280;2321;42.704;23.384;2024-01-07T03:37:18;93667.56;;;5.91;100.00
4617;BME280;2321;42.704;23.384;2024-01-07T03:39:45;93667.97;;;5.87;100.00
4617;BME280;2321;42.704;23.384;2024-01-07T03:42:12;93669.63;;;5.88;100.00
4617;BME280;2321;42.704;23.384;2024-01-07T03:44:39;93671.84;;;5.92;100.00
4617;BME280;2321;42.704;23.384;2024-01-07T03:47:06;93662.47;;;5.89;100.00
4617;BME280;2321;42.704;23.384;2024-01-07T03:49:33;93659.44;;;5.92;100.00
4617;BME280;2321;42.704;23.384;2024-01-07T03:52:01;93659.00;;;6.02;100.00
4617;BME280;2321;42.704;23.384;2024-01-07T03:54:28;93663.69;;;6.07;100.00
4617;BME280;2321;42.704;23.384;2024-01-07T03:56:54;93658.81;;;6.10;100.00
4617;BME280;2321;42.704;23.384;2024-01-07T03:59:21;93659.00;;;6.16;100.00
4617;BME280;2321;42.704;23.384;2024-01-07T04:01:50;93655.72;;;6.20;100.00
4617;BME280;2321;42.704;23.384;2024-01-07T04:04:17;93654.09;;;6.26;100.00
4617;BME280;2321;42.704;23.384;2024-01-07T04:06:43;93642.69;;;6.32;100.00
4617;BME280;2321;42.704;23.384;2024-01-07T04:09:12;93641.22;;;6.43;100.00
4617;BME280;2321;42.704;23.384;2024-01-07T04:11:39;93641.81;;;6.52;100.00
4617;BME280;2321;42.704;23.384;2024-01-07T04:14:06;93634.84;;;6.58;100.00
4617;BME280;2321;42.704;23.384;2024-01-07T04:16:32;93622.63;;;6.64;100.00
4617;BME280;2321;42.704;23.384;2024-01-07T04:18:59;93612.00;;;6.71;100.00
4617;BME280;2321;42.704;23.384;2024-01-07T04:21:26;93610.09;;;6.85;100.00
4617;BME280;2321;42.704;23.384;2024-01-07T04:23:52;93616.34;;;6.91;100.00
4617;BME280;2321;42.704;23.384;2024-01-07T04:26:21;93621.78;;;7.03;100.00
4617;BME280;2321;42.704;23.384;2024-01-07T04:28:47;93625.22;;;7.03;100.00
4617;BME280;2321;42.704;23.384;2024-01-07T04:31:14;93615.84;;;7.07;100.00
4617;BME280;2321;42.704;23.384;2024-01-07T04:33:41;93612.00;;;7.03;100.00
4617;BME280;2321;42.704;23.384;2024-01-07T04:36:08;93602.66;;;7.01;100.00
4617;BME280;2321;42.704;23.384;2024-01-07T04:38:34;93605.75;;;6.97;100.00
4617;BME280;2321;42.704;23.384;2024-01-07T04:41:02;93595.38;;;6.96;100.00
4617;BME280;2321;42.704;23.384;2024-01-07T04:43:30;93597.03;;;6.90;100.00
4617;BME280;2321;42.704;23.384;2024-01-07T04:45:56;93596.47;;;6.81;100.00
4617;BME280;2321;42.704;23.384;2024-01-07T04:48:23;93595.75;;;6.67;100.00
4617;BME280;2321;42.704;23.384;2024-01-07T04:50:49;93604.97;;;6.51;100.00
4617;BME280;2321;42.704;23.384;2024-01-07T04:53:15;93601.94;;;6.47;100.00
4617;BME280;2321;42.704;23.384;2024-01-07T04:55:42;93588.00;;;6.33;100.00
4617;BME280;2321;42.704;23.384;2024-01-07T04:58:09;93585.59;;;6.25;100.00
4617;BME280;2321;42.704;23.384;2024-01-07T05:00:37;93588.03;;;6.19;100.00
4617;BME280;2321;42.704;23.384;2024-01-07T05:03:04;93601.44;;;6.25;100.00
4617;BME280;2321;42.704;23.384;2024-01-07T05:05:31;93619.31;;;6.29;100.00
4617;BME280;2321;42.704;23.384;2024-01-07T05:07:58;93605.09;;;6.30;100.00
4617;BME280;2321;42.704;23.384;2024-01-07T05:10:25;93597.97;;;6.31;100.00
4617;BME280;2321;42.704;23.384;2024-01-07T05:12:52;93602.19;;;6.39;100.00
4617;BME280;2321;42.704;23.384;2024-01-07T05:15:19;93598.72;;;6.38;100.00
4617;BME280;2321;42.704;23.384;2024-01-07T05:17:47;93579.63;;;6.36;100.00
4617;BME280;2321;42.704;23.384;2024-01-07T05:20:15;93560.16;;;6.30;100.00
4617;BME280;2321;42.704;23.384;2024-01-07T05:22:41;93563.38;;;6.32;100.00
4617;BME280;2321;42.704;23.384;2024-01-07T05:25:08;93568.66;;;6.32;100.00
4617;BME280;2321;42.704;23.384;2024-01-07T05:27:35;93568.41;;;6.41;100.00
4617;BME280;2321;42.704;23.384;2024-01-07T05:30:02;93589.56;;;6.41;100.00
4617;BME280;2321;42.704;23.384;2024-01-07T05:32:29;93592.03;;;6.36;100.00
4617;BME280;2321;42.704;23.384;2024-01-07T05:34:57;93593.25;;;6.40;100.00
4617;BME280;2321;42.704;23.384;2024-01-07T05:37:24;93584.91;;;6.43;100.00
4617;BME280;2321;42.704;23.384;2024-01-07T05:39:50;93584.06;;;6.49;100.00
4617;BME280;2321;42.704;23.384;2024-01-07T05:42:17;93581.38;;;6.56;100.00
4617;BME280;2321;42.704;23.384;2024-01-07T05:44:44;93577.28;;;6.60;100.00
4617;BME280;2321;42.704;23.384;2024-01-07T05:47:11;93572.34;;;6.71;100.00
4617;BME280;2321;42.704;23.384;2024-01-07T05:49:37;93573.59;;;6.68;100.00
4617;BME280;2321;42.704;23.384;2024-01-07T05:52:06;93583.53;;;6.66;100.00
4617;BME280;2321;42.704;23.384;2024-01-07T05:54:32;93585.56;;;6.71;100.00
4617;BME280;2321;42.704;23.384;2024-01-07T05:56:59;93581.25;;;6.77;100.00
4617;BME280;2321;42.704;23.384;2024-01-07T05:59:26;93582.66;;;6.79;100.00
4617;BME280;2321;42.704;23.384;2024-01-07T06:01:57;93586.69;;;6.82;100.00
4617;BME280;2321;42.704;23.384;2024-01-07T06:04:24;93607.44;;;6.85;100.00
4617;BME280;2321;42.704;23.384;2024-01-07T06:06:51;93600.91;;;6.88;100.00
4617;BME280;2321;42.704;23.384;2024-01-07T06:09:19;93597.84;;;6.91;100.00
4617;BME280;2321;42.704;23.384;2024-01-07T06:11:46;93594.19;;;6.92;100.00
4617;BME280;2321;42.704;23.384;2024-01-07T06:14:13;93575.66;;;6.92;100.00
4617;BME280;2321;42.704;23.384;2024-01-07T06:16:40;93586.00;;;6.93;100.00
4617;BME280;2321;42.704;23.384;2024-01-07T06:19:07;93591.09;;;6.95;100.00
4617;BME280;2321;42.704;23.384;2024-01-07T06:21:34;93582.34;;;6.94;100.00
4617;BME280;2321;42.704;23.384;2024-01-07T06:24:01;93585.81;;;6.95;100.00
4617;BME280;2321;42.704;23.384;2024-01-07T06:26:29;93592.06;;;7.01;100.00
4617;BME280;2321;42.704;23.384;2024-01-07T06:28:55;93566.50;;;6.88;100.00
4617;BME280;2321;42.704;23.384;2024-01-07T06:31:22;93583.00;;;6.90;100.00
4617;BME280;2321;42.704;23.384;2024-01-07T06:33:49;93578.78;;;6.82;100.00
4617;BME280;2321;42.704;23.384;2024-01-07T06:36:16;93578.78;;;6.82;100.00
4617;BME280;2321;42.704;23.384;2024-01-07T06:38:42;93586.50;;;6.83;100.00
4617;BME280;2321;42.704;23.384;2024-01-07T06:41:09;93595.63;;;6.88;100.00
4617;BME280;2321;42.704;23.384;2024-01-07T06:43:37;93603.56;;;6.88;100.00
4617;BME280;2321;42.704;23.384;2024-01-07T06:46:04;93598.66;;;6.91;100.00
4617;BME280;2321;42.704;23.384;2024-01-07T06:48:31;93595.59;;;6.94;100.00
4617;BME280;2321;42.704;23.384;2024-01-07T06:50:58;93617.13;;;6.98;100.00
4617;BME280;2321;42.704;23.384;2024-01-07T06:53:24;93628.09;;;7.02;100.00
4617;BME280;2321;42.704;23.384;2024-01-07T06:55:51;93627.47;;;7.06;100.00
4617;BME280;2321;42.704;23.384;2024-01-07T06:58:18;93625.81;;;7.05;100.00
4617;BME280;2321;42.704;23.384;2024-01-07T07:00:46;93617.09;;;7.05;100.00
4617;BME280;2321;42.704;23.384;2024-01-07T07:03:13;93618.31;;;7.02;100.00
4617;BME280;2321;42.704;23.384;2024-01-07T07:05:40;93612.44;;;7.00;100.00
4617;BME280;2321;42.704;23.384;2024-01-07T07:08:07;93617.72;;;7.00;100.00
4617;BME280;2321;42.704;23.384;2024-01-07T07:10:34;93604.28;;;7.02;100.00
4617;BME280;2321;42.704;23.384;2024-01-07T07:13:00;93609.94;;;7.05;100.00
4617;BME280;2321;42.704;23.384;2024-01-07T07:15:27;93612.97;;;7.09;100.00
4617;BME280;2321;42.704;23.384;2024-01-07T07:17:56;93608.88;;;7.13;100.00
4617;BME280;2321;42.704;23.384;2024-01-07T07:20:22;93601.09;;;7.18;100.00
4617;BME280;2321;42.704;23.384;2024-01-07T07:22:49;93591.13;;;7.21;100.00
4617;BME280;2321;42.704;23.384;2024-01-07T07:25:16;93596.84;;;7.17;100.00
4617;BME280;2321;42.704;23.384;2024-01-07T07:27:42;93591.34;;;7.19;100.00
4617;BME280;2321;42.704;23.384;2024-01-07T07:30:10;93597.59;;;7.25;100.00
4617;BME280;2321;42.704;23.384;2024-01-07T07:32:38;93601.22;;;7.30;100.00
4617;BME280;2321;42.704;23.384;2024-01-07T07:35:07;93592.41;;;7.37;100.00
4617;BME280;2321;42.704;23.384;2024-01-07T07:37:34;93584.41;;;7.44;100.00
4617;BME280;2321;42.704;23.384;2024-01-07T07:40:00;93596.03;;;7.43;100.00
4617;BME280;2321;42.704;23.384;2024-01-07T07:42:27;93609.88;;;7.45;100.00
4617;BME280;2321;42.704;23.384;2024-01-07T07:44:54;93606.38;;;7.51;100.00
4617;BME280;2321;42.704;23.384;2024-01-07T07:47:21;93600.41;;;7.56;100.00
4617;BME280;2321;42.704;23.384;2024-01-07T07:49:48;93602.19;;;7.62;100.00
4617;BME280;2321;42.704;23.384;2024-01-07T07:52:17;93611.09;;;7.68;100.00
4617;BME280;2321;42.704;23.384;2024-01-07T07:54:47;93600.19;;;7.76;100.00
4617;BME280;2321;42.704;23.384;2024-01-07T07:57:14;93587.94;;;7.82;100.00
4617;BME280;2321;42.704;23.384;2024-01-07T07:59:41;93587.28;;;7.87;100.00
4617;BME280;2321;42.704;23.384;2024-01-07T08:02:08;93582.09;;;7.92;100.00
4617;BME280;2321;42.704;23.384;2024-01-07T08:04:34;93597.13;;;7.98;100.00
4617;BME280;2321;42.704;23.384;2024-01-07T08:07:02;93601.09;;;8.07;100.00
4617;BME280;2321;42.704;23.384;2024-01-07T08:09:30;93576.81;;;8.11;100.00
4617;BME280;2321;42.704;23.384;2024-01-07T08:11:57;93593.53;;;8.11;100.00
4617;BME280;2321;42.704;23.384;2024-01-07T08:14:23;93586.16;;;8.13;100.00
4617;BME280;2321;42.704;23.384;2024-01-07T08:16:50;93581.81;;;8.19;100.00
4617;BME280;2321;42.704;23.384;2024-01-07T08:19:17;93583.56;;;8.25;100.00
4617;BME280;2321;42.704;23.384;2024-01-07T08:21:45;93579.81;;;8.33;100.00
4617;BME280;2321;42.704;23.384;2024-01-07T08:24:12;93587.91;;;8.38;100.00
4617;BME280;2321;42.704;23.384;2024-01-07T08:26:40;93589.91;;;8.43;100.00
4617;BME280;2321;42.704;23.384;2024-01-07T08:29:07;93591.63;;;8.49;100.00
4617;BME280;2321;42.704;23.384;2024-01-07T08:31:33;93582.78;;;8.56;100.00
4617;BME280;2321;42.704;23.384;2024-01-07T08:34:00;93587.81;;;8.64;100.00
4617;BME280;2321;42.704;23.384;2024-01-07T08:36:27;93582.41;;;8.71;100.00
4617;BME280;2321;42.704;23.384;2024-01-07T08:38:54;93581.16;;;8.74;100.00
4617;BME280;2321;42.704;23.384;2024-01-07T08:41:21;93576.00;;;8.79;100.00
4617;BME280;2321;42.704;23.384;2024-01-07T08:43:49;93585.34;;;8.81;100.00
4617;BME280;2321;42.704;23.384;2024-01-07T08:46:16;93580.50;;;8.90;100.00
4617;BME280;2321;42.704;23.384;2024-01-07T08:48:43;93571.88;;;8.95;100.00
4617;BME280;2321;42.704;23.384;2024-01-07T08:51:10;93574.75;;;8.93;100.00
4617;BME280;2321;42.704;23.384;2024-01-07T08:53:36;93567.97;;;8.98;100.00
4617;BME280;2321;42.704;23.384;2024-01-07T08:56:03;93564.03;;;9.00;100.00
4617;BME280;2321;42.704;23.384;2024-01-07T08:58:31;93567.41;;;9.08;100.00
4617;BME280;2321;42.704;23.384;2024-01-07T09:01:00;93571.66;;;9.09;100.00
4617;BME280;2321;42.704;23.384;2024-01-07T09:03:27;93573.41;;;9.15;100.00
4617;BME280;2321;42.704;23.384;2024-01-07T09:05:53;93577.91;;;9.14;100.00
4617;BME280;2321;42.704;23.384;2024-01-07T09:08:20;93577.69;;;9.16;100.00
4617;BME280;2321;42.704;23.384;2024-01-07T09:10:48;93575.41;;;9.20;100.00
4617;BME280;2321;42.704;23.384;2024-01-07T09:13:15;93586.50;;;9.29;100.00
4617;BME280;2321;42.704;23.384;2024-01-07T09:15:42;93593.41;;;9.42;100.00
4617;BME280;2321;42.704;23.384;2024-01-07T09:18:10;93594.22;;;9.54;100.00
4617;BME280;2321;42.704;23.384;2024-01-07T09:20:38;93582.78;;;9.54;100.00
4617;BME280;2321;42.704;23.384;2024-01-07T09:23:04;93585.00;;;9.57;100.00
4617;BME280;2321;42.704;23.384;2024-01-07T09:25:31;93577.38;;;9.61;100.00
4617;BME280;2321;42.704;23.384;2024-01-07T09:27:58;93585.69;;;9.76;100.00
4617;BME280;2321;42.704;23.384;2024-01-07T09:30:24;93583.63;;;9.90;100.00
4617;BME280;2321;42.704;23.384;2024-01-07T09:32:51;93585.31;;;10.09;100.00
4617;BME280;2321;42.704;23.384;2024-01-07T09:35:19;93583.31;;;10.16;100.00
4617;BME280;2321;42.704;23.384;2024-01-07T09:37:46;93578.56;;;10.30;100.00
4617;BME280;2321;42.704;23.384;2024-01-07T09:40:16;93580.50;;;10.35;100.00
4617;BME280;2321;42.704;23.384;2024-01-07T09:42:44;93588.88;;;10.27;100.00
4617;BME280;2321;42.704;23.384;2024-01-07T09:45:12;93583.28;;;10.28;100.00
4617;BME280;2321;42.704;23.384;2024-01-07T09:47:39;93582.25;;;10.29;100.00
4617;BME280;2321;42.704;23.384;2024-01-07T09:50:06;93577.28;;;10.33;100.00
4617;BME280;2321;42.704;23.384;2024-01-07T09:52:36;93574.84;;;10.31;100.00
4617;BME280;2321;42.704;23.384;2024-01-07T09:55:04;93563.50;;;10.36;100.00
4617;BME280;2321;42.704;23.384;2024-01-07T09:57:34;93573.44;;;10.41;100.00
4617;BME280;2321;42.704;23.384;2024-01-07T10:00:01;93576.09;;;10.53;100.00
4617;BME280;2321;42.704;23.384;2024-01-07T10:02:29;93576.03;;;10.65;100.00
4617;BME280;2321;42.704;23.384;2024-01-07T10:04:55;93583.78;;;10.66;100.00
4617;BME280;2321;42.704;23.384;2024-01-07T10:07:22;93584.03;;;10.65;100.00
4617;BME280;2321;42.704;23.384;2024-01-07T10:09:52;93578.69;;;10.65;100.00
4617;BME280;2321;42.704;23.384;2024-01-07T10:12:22;93568.53;;;10.62;100.00
4617;BME280;2321;42.704;23.384;2024-01-07T10:14:49;93569.34;;;10.62;100.00
4617;BME280;2321;42.704;23.384;2024-01-07T10:17:16;93560.31;;;10.63;100.00
4617;BME280;2321;42.704;23.384;2024-01-07T10:19:43;93563.53;;;10.65;100.00
4617;BME280;2321;42.704;23.384;2024-01-07T10:22:12;93556.72;;;10.70;100.00
4617;BME280;2321;42.704;23.384;2024-01-07T10:24:39;93558.91;;;10.73;100.00
4617;BME280;2321;42.704;23.384;2024-01-07T10:27:07;93547.28;;;10.79;100.00
4617;BME280;2321;42.704;23.384;2024-01-07T10:29:34;93547.59;;;10.83;100.00
4617;BME280;2321;42.704;23.384;2024-01-07T10:32:01;93543.19;;;10.88;100.00
4617;BME280;2321;42.704;23.384;2024-01-07T10:34:30;93539.47;;;10.89;100.00
4617;BME280;2321;42.704;23.384;2024-01-07T10:36:58;93538.16;;;10.92;100.00
4617;BME280;2321;42.704;23.384;2024-01-07T10:39:25;93530.03;;;10.99;100.00
4617;BME280;2321;42.704;23.384;2024-01-07T10:41:52;93524.38;;;10.95;100.00
4617;BME280;2321;42.704;23.384;2024-01-07T10:44:24;93515.56;;;10.95;100.00
4617;BME280;2321;42.704;23.384;2024-01-07T10:46:52;93515.84;;;10.93;100.00
4617;BME280;2321;42.704;23.384;2024-01-07T10:49:20;93510.84;;;10.97;100.00
4617;BME280;2321;42.704;23.384;2024-01-07T10:51:47;93515.75;;;11.05;100.00
4617;BME280;2321;42.704;23.384;2024-01-07T10:54:17;93506.25;;;11.09;100.00
4617;BME280;2321;42.704;23.384;2024-01-07T10:56:46;93504.69;;;11.14;100.00
4617;BME280;2321;42.704;23.384;2024-01-07T10:59:15;93509.47;;;11.11;100.00
4617;BME280;2321;42.704;23.384;2024-01-07T11:01:44;93519.78;;;11.08;100.00
4617;BME280;2321;42.704;23.384;2024-01-07T11:04:12;93516.09;;;11.09;100.00
4617;BME280;2321;42.704;23.384;2024-01-07T11:06:41;93517.38;;;11.06;100.00
4617;BME280;2321;42.704;23.384;2024-01-07T11:09:13;93522.44;;;11.08;100.00
4617;BME280;2321;42.704;23.384;2024-01-07T11:11:44;93504.47;;;11.15;100.00
4617;BME280;2321;42.704;23.384;2024-01-07T11:14:33;93499.69;;;11.17;100.00
4617;BME280;2321;42.704;23.384;2024-01-07T11:17:02;93494.44;;;11.22;100.00
4617;BME280;2321;42.704;23.384;2024-01-07T11:19:29;93496.94;;;11.29;100.00
4617;BME280;2321;42.704;23.384;2024-01-07T11:22:08;93502.66;;;11.38;100.00
4617;BME280;2321;42.704;23.384;2024-01-07T11:24:47;93508.38;;;11.47;100.00
4617;BME280;2321;42.704;23.384;2024-01-07T11:27:15;93506.91;;;11.57;100.00
4617;BME280;2321;42.704;23.384;2024-01-07T11:29:42;93505.94;;;11.63;100.00
4617;BME280;2321;42.704;23.384;2024-01-07T11:32:11;93497.94;;;11.63;100.00
4617;BME280;2321;42.704;23.384;2024-01-07T11:34:39;93500.09;;;11.66;100.00
4617;BME280;2321;42.704;23.384;2024-01-07T11:37:07;93491.38;;;11.71;100.00
4617;BME280;2321;42.704;23.384;2024-01-07T11:39:36;93499.13;;;11.72;100.00
4617;BME280;2321;42.704;23.384;2024-01-07T11:42:03;93505.25;;;11.73;100.00
4617;BME280;2321;42.704;23.384;2024-01-07T11:44:32;93500.75;;;11.73;100.00
4617;BME280;2321;42.704;23.384;2024-01-07T11:46:59;93500.81;;;11.79;100.00
4617;BME280;2321;42.704;23.384;2024-01-07T11:49:27;93507.00;;;11.84;100.00
4617;BME280;2321;42.704;23.384;2024-01-07T11:51:54;93510.53;;;11.90;100.00
4617;BME280;2321;42.704;23.384;2024-01-07T11:54:22;93511.44;;;11.96;100.00
4617;BME280;2321;42.704;23.384;2024-01-07T11:56:48;93514.38;;;11.99;100.00
4617;BME280;2321;42.704;23.384;2024-01-07T11:59:15;93516.56;;;12.03;100.00
4617;BME280;2321;42.704;23.384;2024-01-07T12:01:42;93517.38;;;12.03;100.00
4617;BME280;2321;42.704;23.384;2024-01-07T12:04:09;93510.72;;;12.06;100.00
4617;BME280;2321;42.704;23.384;2024-01-07T12:06:38;93499.56;;;12.09;100.00
4617;BME280;2321;42.704;23.384;2024-01-07T12:09:05;93497.47;;;12.11;100.00
4617;BME280;2321;42.704;23.384;2024-01-07T12:11:32;93500.16;;;12.11;100.00
4617;BME280;2321;42.704;23.384;2024-01-07T12:13:58;93503.31;;;12.08;100.00
4617;BME280;2321;42.704;23.384;2024-01-07T12:16:26;93499.34;;;12.11;100.00
4617;BME280;2321;42.704;23.384;2024-01-07T12:18:53;93496.09;;;12.08;100.00
4617;BME280;2321;42.704;23.384;2024-01-07T12:21:20;93496.34;;;12.07;100.00
4617;BME280;2321;42.704;23.384;2024-01-07T12:23:49;93504.59;;;12.05;100.00
4617;BME280;2321;42.704;23.384;2024-01-07T12:26:17;93504.84;;;12.04;100.00
4617;BME280;2321;42.704;23.384;2024-01-07T12:28:44;93507.53;;;12.04;100.00
4617;BME280;2321;42.704;23.384;2024-01-07T12:31:11;93505.66;;;12.04;100.00
4617;BME280;2321;42.704;23.384;2024-01-07T12:33:38;93521.66;;;12.04;100.00
4617;BME280;2321;42.704;23.384;2024-01-07T12:36:06;93516.56;;;12.03;100.00
4617;BME280;2321;42.704;23.384;2024-01-07T12:38:33;93519.22;;;12.03;100.00
4617;BME280;2321;42.704;23.384;2024-01-07T12:41:04;93517.06;;;11.99;100.00
4617;BME280;2321;42.704;23.384;2024-01-07T12:43:31;93522.41;;;11.99;100.00
4617;BME280;2321;42.704;23.384;2024-01-07T12:45:57;93518.13;;;11.98;100.00
4617;BME280;2321;42.704;23.384;2024-01-07T12:48:29;93514.34;;;11.94;100.00
4617;BME280;2321;42.704;23.384;2024-01-07T12:50:56;93519.44;;;11.96;100.00
4617;BME280;2321;42.704;23.384;2024-01-07T12:53:23;93513.28;;;11.95;100.00
4617;BME280;2321;42.704;23.384;2024-01-07T12:55:49;93514.88;;;11.96;100.00
4617;BME280;2321;42.704;23.384;2024-01-07T12:58:18;93523.47;;;11.98;100.00
4617;BME280;2321;42.704;23.384;2024-01-07T13:00:46;93518.91;;;11.99;100.00
4617;BME280;2321;42.704;23.384;2024-01-07T13:03:12;93520.00;;;11.98;100.00
4617;BME280;2321;42.704;23.384;2024-01-07T13:05:42;93530.41;;;11.99;100.00
4617;BME280;2321;42.704;23.384;2024-01-07T13:08:11;93530.41;;;11.99;100.00